Time;durP1;ratioP1;P1;durP2;ratioP2;P2;SDS_P1;SDS_P2;PMS_P1;PMS_P2;Temp;Humidity;BMP_temperature;BMP_pressure;BME280_temperature;BME280_humidity;BME280_pressure;Samples;Min_cycle;Max_cycle;Signal;HPM_P1;HPM_P2
2023/03/18 00:00:50;;;;;;;12.50;8.20;;;4.30;99.90;;;;;;4957345;28;20038;-88
2023/03/18 00:03:16;;;;;;;15.80;8.40;;;4.30;99.90;;;;;;4956898;28;20899;-88
2023/03/18 00:05:42;;;;;;;14.70;8.53;;;4.30;99.90;;;;;;4957501;28;20046;-88
2023/03/18 00:08:08;;;;;;;14.33;8.37;;;4.20;99.90;;;;;;4955914;28;20035;-89
2023/03/18 00:10:34;;;;;;;14.37;8.60;;;4.20;99.90;;;;;;4955373;28;20070;-88
2023/03/18 00:13:00;;;;;;;16.07;8.00;;;4.10;99.90;;;;;;4956216;28;20165;-88
2023/03/18 00:15:27;;;;;;;17.10;9.47;;;4.10;99.90;;;;;;4957435;28;20070;-89
2023/03/18 00:17:53;;;;;;;14.10;8.03;;;4.10;99.90;;;;;;4956366;28;20042;-88
2023/03/18 00:20:27;;;;;;;19.87;8.77;;;4.10;99.90;;;;;;4956708;28;20638;-88
2023/03/18 00:22:54;;;;;;;16.70;8.15;;;4.10;99.90;;;;;;4956093;28;20042;-88
2023/03/18 00:25:20;;;;;;;18.13;9.67;;;4.10;99.90;;;;;;4956828;28;20042;-88
2023/03/18 00:27:45;;;;;;;14.87;9.47;;;4.00;99.90;;;;;;4956068;28;20034;-89
2023/03/18 00:30:11;;;;;;;16.43;8.77;;;4.00;99.90;;;;;;4957164;28;20050;-88
2023/03/18 00:32:37;;;;;;;19.73;8.67;;;4.10;99.90;;;;;;4955769;28;20082;-89
2023/03/18 00:35:03;;;;;;;16.17;8.40;;;4.00;99.90;;;;;;4956559;28;20221;-88
2023/03/18 00:37:34;;;;;;;13.93;8.27;;;4.00;99.90;;;;;;4956333;28;20085;-89
2023/03/18 00:40:05;;;;;;;17.10;8.40;;;4.10;99.90;;;;;;4956511;28;20512;-88
2023/03/18 00:42:37;;;;;;;12.03;8.23;;;4.00;99.90;;;;;;4956661;28;20062;-88
2023/03/18 00:45:06;;;;;;;13.30;8.57;;;4.10;99.90;;;;;;4956522;28;20034;-88
2023/03/18 00:47:32;;;;;;;14.37;9.17;;;4.00;99.90;;;;;;4956303;28;20027;-88
2023/03/18 00:49:57;;;;;;;14.83;8.23;;;4.00;99.90;;;;;;4956234;28;20430;-89
2023/03/18 00:52:24;;;;;;;14.07;7.93;;;4.00;99.90;;;;;;4955894;28;20019;-88
2023/03/18 00:54:50;;;;;;;14.33;8.10;;;4.00;99.90;;;;;;4956476;28;20385;-89
2023/03/18 00:57:16;;;;;;;12.67;8.30;;;4.00;99.90;;;;;;4955980;28;20030;-88
2023/03/18 00:59:42;;;;;;;15.23;8.90;;;3.90;99.90;;;;;;4955891;28;20564;-87
2023/03/18 01:02:07;;;;;;;13.30;8.77;;;3.90;99.90;;;;;;4956005;28;20110;-88
2023/03/18 01:04:33;;;;;;;15.57;9.57;;;3.90;99.90;;;;;;4954237;28;20034;-87
2023/03/18 01:07:00;;;;;;;20.17;9.53;;;3.90;99.90;;;;;;4955852;28;20126;-87
2023/03/18 01:09:25;;;;;;;15.80;9.10;;;3.90;99.90;;;;;;4955563;28;20041;-87
2023/03/18 01:11:51;;;;;;;16.23;9.80;;;3.90;99.90;;;;;;4955747;28;20027;-87
2023/03/18 01:14:18;;;;;;;14.63;8.70;;;3.80;99.90;;;;;;4955532;28;20047;-88
2023/03/18 01:16:45;;;;;;;15.13;8.60;;;3.90;99.90;;;;;;4955914;28;20082;-88
2023/03/18 01:19:12;;;;;;;13.33;7.90;;;3.80;99.90;;;;;;4955194;28;20045;-88
2023/03/18 01:21:38;;;;;;;14.53;8.50;;;3.80;99.90;;;;;;4955920;28;20056;-87
2023/03/18 01:24:04;;;;;;;12.83;8.37;;;3.80;99.90;;;;;;4953402;28;20042;-87
2023/03/18 01:26:29;;;;;;;16.17;9.13;;;3.80;99.90;;;;;;4954753;28;20034;-88
2023/03/18 01:28:55;;;;;;;13.97;8.83;;;3.80;99.90;;;;;;4955204;28;20069;-88
2023/03/18 01:31:23;;;;;;;23.10;10.00;;;3.90;99.90;;;;;;4955629;28;20430;-88
2023/03/18 01:33:48;;;;;;;18.00;10.27;;;3.90;99.90;;;;;;4955016;28;20021;-87
2023/03/18 01:36:14;;;;;;;16.20;10.33;;;3.90;99.90;;;;;;4955618;28;20681;-87
2023/03/18 01:38:41;;;;;;;21.10;10.70;;;3.90;99.90;;;;;;4954449;28;20049;-87
2023/03/18 01:41:07;;;;;;;14.27;9.63;;;3.90;99.90;;;;;;4955460;28;20413;-88
2023/03/18 01:43:35;;;;;;;13.20;8.83;;;4.00;99.90;;;;;;4954456;28;20047;-88
2023/03/18 01:46:29;;;;;;;18.13;9.03;;;4.00;99.90;;;;;;4955825;28;20034;-88
2023/03/18 01:48:56;;;;;;;14.83;8.60;;;4.00;99.90;;;;;;4954673;28;20398;-88
2023/03/18 01:51:24;;;;;;;16.37;9.57;;;4.00;99.90;;;;;;4954936;28;20942;-88
2023/03/18 01:53:50;;;;;;;13.17;9.10;;;4.10;99.90;;;;;;4954601;28;20062;-88
2023/03/18 01:56:16;;;;;;;15.23;8.77;;;4.20;99.90;;;;;;4955149;28;20034;-88
2023/03/18 01:58:45;;;;;;;14.67;9.43;;;4.20;99.90;;;;;;4954407;28;20438;-88
2023/03/18 02:01:40;;;;;;;14.47;8.80;;;4.20;99.90;;;;;;4955639;28;20034;-88
2023/03/18 02:04:09;;;;;;;14.93;8.70;;;4.30;99.90;;;;;;4954804;28;20039;-88
2023/03/18 02:06:35;;;;;;;15.23;8.77;;;4.40;99.90;;;;;;4954890;28;20035;-88
2023/03/18 02:09:02;;;;;;;12.03;7.90;;;4.50;99.90;;;;;;4954862;28;20173;-88
2023/03/18 02:11:34;;;;;;;14.40;7.37;;;4.50;99.90;;;;;;4954699;28;20043;-88
2023/03/18 02:14:01;;;;;;;11.93;7.90;;;4.50;99.90;;;;;;4954478;28;20070;-88
2023/03/18 02:16:33;;;;;;;10.77;6.97;;;4.60;99.90;;;;;;4954956;28;20058;-88
2023/03/18 02:19:04;;;;;;;10.70;6.30;;;4.60;99.90;;;;;;4954655;28;20398;-88
2023/03/18 02:21:42;;;;;;;10.90;7.20;;;4.70;99.90;;;;;;4955132;28;20019;-87
2023/03/18 02:24:35;;;;;;;11.97;7.40;;;4.80;99.90;;;;;;4954297;28;20043;-87
2023/03/18 02:27:19;;;;;;;13.80;7.00;;;4.80;99.90;;;;;;4954824;28;20047;-88
2023/03/18 02:29:47;;;;;;;13.27;7.00;;;4.70;99.90;;;;;;4954927;28;20117;-87
2023/03/18 02:32:13;;;;;;;12.50;6.70;;;4.70;99.90;;;;;;4954703;28;20631;-88
2023/03/18 02:34:40;;;;;;;10.77;6.20;;;4.70;99.90;;;;;;4955920;28;20027;-88
2023/03/18 02:37:09;;;;;;;10.83;6.60;;;4.70;99.90;;;;;;4957248;28;20028;-88
2023/03/18 02:39:35;;;;;;;12.27;6.67;;;4.70;99.90;;;;;;4958460;28;20031;-88
2023/03/18 02:42:00;;;;;;;9.83;6.50;;;4.70;99.90;;;;;;4958228;28;20039;-88
2023/03/18 02:44:27;;;;;;;12.17;6.43;;;4.70;99.90;;;;;;4959033;28;20071;-88
2023/03/18 02:46:54;;;;;;;14.63;6.60;;;4.70;99.90;;;;;;4958209;28;20026;-88
2023/03/18 02:49:23;;;;;;;11.07;6.60;;;4.70;99.90;;;;;;4957926;28;20106;-88
2023/03/18 02:51:50;;;;;;;11.53;6.93;;;4.80;99.90;;;;;;4958610;28;20163;-88
2023/03/18 02:54:25;;;;;;;10.50;6.40;;;4.80;99.90;;;;;;4956605;28;20063;-88
2023/03/18 02:56:51;;;;;;;;;;;4.80;99.90;;;;;;4958628;28;20077;-88
2023/03/18 02:59:17;;;;;;;9.83;6.37;;;4.90;99.90;;;;;;4958130;28;19910;-87
2023/03/18 03:01:45;;;;;;;9.90;5.87;;;4.90;99.90;;;;;;4958540;28;20035;-88
2023/03/18 03:04:11;;;;;;;11.57;6.17;;;4.90;99.90;;;;;;4958643;28;20473;-88
2023/03/18 03:06:38;;;;;;;10.70;5.90;;;4.90;99.90;;;;;;4958421;28;20065;-88
2023/03/18 03:09:06;;;;;;;8.93;5.83;;;4.90;99.90;;;;;;4957323;28;20077;-88
2023/03/18 03:11:32;;;;;;;9.07;5.87;;;4.90;99.90;;;;;;4958039;28;20118;-88
2023/03/18 03:13:58;;;;;;;10.30;5.50;;;5.00;99.90;;;;;;4958171;28;21420;-88
2023/03/18 03:16:24;;;;;;;11.17;5.73;;;5.00;99.90;;;;;;4958273;28;20043;-88
2023/03/18 03:18:50;;;;;;;9.10;5.20;;;5.00;99.90;;;;;;4957793;28;20027;-88
2023/03/18 03:21:16;;;;;;;8.40;5.50;;;5.00;99.90;;;;;;4958451;28;20375;-88
2023/03/18 03:23:43;;;;;;;9.90;5.10;;;5.10;99.90;;;;;;4958048;28;20055;-88
2023/03/18 03:26:09;;;;;;;8.07;4.67;;;5.10;99.90;;;;;;4957719;28;20122;-88
2023/03/18 03:28:35;;;;;;;8.17;5.07;;;5.20;99.90;;;;;;4957614;28;20027;-88
2023/03/18 03:31:01;;;;;;;7.30;4.80;;;5.20;99.90;;;;;;4957799;28;20055;-88
2023/03/18 03:33:27;;;;;;;11.13;5.30;;;5.30;99.90;;;;;;4957258;28;20046;-88
2023/03/18 03:35:53;;;;;;;8.20;5.00;;;5.30;99.90;;;;;;4957884;28;20027;-88
2023/03/18 03:38:21;;;;;;;9.60;5.20;;;5.40;99.90;;;;;;4957112;28;20031;-89
2023/03/18 03:40:47;;;;;;;8.37;4.60;;;5.40;99.90;;;;;;4957955;28;20031;-88
2023/03/18 03:43:14;;;;;;;8.30;4.70;;;5.50;99.90;;;;;;4956779;28;20086;-87
2023/03/18 03:45:41;;;;;;;11.00;5.00;;;5.50;99.90;;;;;;4957164;28;20031;-88
2023/03/18 03:48:07;;;;;;;10.17;5.13;;;5.60;99.90;;;;;;4956712;28;20042;-88
2023/03/18 03:50:34;;;;;;;7.73;4.73;;;5.60;99.90;;;;;;4957564;28;20030;-87
2023/03/18 03:53:01;;;;;;;8.57;5.13;;;5.60;99.90;;;;;;4956355;28;20533;-87
2023/03/18 03:55:27;;;;;;;12.83;4.83;;;5.60;99.90;;;;;;4957555;28;20038;-87
2023/03/18 03:57:52;;;;;;;10.63;5.17;;;5.60;99.90;;;;;;4956725;28;20023;-87
2023/03/18 04:00:20;;;;;;;10.07;5.10;;;5.60;99.90;;;;;;4957410;28;20030;-88
2023/03/18 04:02:50;;;;;;;7.27;4.37;;;5.60;99.90;;;;;;4956339;28;20176;-87
2023/03/18 04:05:17;;;;;;;8.17;4.63;;;5.60;99.90;;;;;;4957622;28;20089;-88
2023/03/18 04:07:44;;;;;;;6.50;4.57;;;5.50;99.90;;;;;;4956668;28;20031;-87
2023/03/18 04:10:12;;;;;;;10.07;4.47;;;5.50;99.90;;;;;;4956819;28;20037;-87
2023/03/18 04:12:38;;;;;;;7.67;4.17;;;5.50;99.90;;;;;;4956247;28;20023;-87
2023/03/18 04:15:05;;;;;;;7.07;4.43;;;5.50;99.90;;;;;;4957166;28;20054;-88
2023/03/18 04:17:32;;;;;;;9.30;4.50;;;5.50;99.90;;;;;;4956097;28;20126;-87
2023/03/18 04:19:58;;;;;;;8.03;4.50;;;5.50;99.90;;;;;;4956986;28;20031;-87
2023/03/18 04:22:23;;;;;;;9.03;4.40;;;5.50;99.90;;;;;;4956688;28;20514;-87
2023/03/18 04:24:49;;;;;;;9.20;4.90;;;5.50;99.90;;;;;;4956246;28;20042;-87
2023/03/18 04:27:15;;;;;;;6.70;4.30;;;5.40;99.90;;;;;;4957133;28;20023;-88
2023/03/18 04:29:41;;;;;;;9.83;4.57;;;5.50;99.90;;;;;;4956315;28;20026;-87
2023/03/18 04:32:06;;;;;;;10.10;6.00;;;5.40;99.90;;;;;;4956389;28;20031;-88
2023/03/18 04:34:32;;;;;;;15.17;6.87;;;5.40;99.90;;;;;;4956430;28;20026;-87
2023/03/18 04:36:58;;;;;;;13.63;7.53;;;5.30;99.90;;;;;;4956397;28;20030;-87
2023/03/18 04:39:23;;;;;;;12.60;6.50;;;5.20;99.90;;;;;;4956132;28;20023;-88
2023/03/18 04:41:49;;;;;;;12.93;6.50;;;5.20;99.90;;;;;;4955210;28;20047;-88
2023/03/18 04:44:16;;;;;;;10.87;6.07;;;5.10;99.90;;;;;;4955835;28;20129;-88
2023/03/18 04:46:42;;;;;;;11.27;5.87;;;5.00;99.90;;;;;;4956546;28;21409;-88
2023/03/18 04:49:08;;;;;;;8.77;5.30;;;4.90;99.90;;;;;;4955659;28;20082;-88
2023/03/18 04:51:34;;;;;;;7.50;4.97;;;4.80;99.90;;;;;;4956176;28;20038;-88
2023/03/18 04:53:59;;;;;;;10.20;5.87;;;4.80;99.90;;;;;;4955261;28;20037;-88
2023/03/18 04:56:25;;;;;;;10.13;5.07;;;4.70;99.90;;;;;;4956217;28;20035;-87
2023/03/18 04:58:50;;;;;;;8.10;5.10;;;4.60;99.90;;;;;;4954876;28;20046;-89
2023/03/18 05:01:16;;;;;;;10.07;4.77;;;4.60;99.90;;;;;;4956232;28;20074;-88
2023/03/18 05:03:42;;;;;;;11.20;5.73;;;4.60;99.90;;;;;;4955970;28;20038;-88
2023/03/18 05:06:15;;;;;;;10.20;5.40;;;4.50;99.90;;;;;;4956136;28;20362;-87
2023/03/18 05:08:41;;;;;;;10.23;5.67;;;4.50;99.90;;;;;;4955533;28;20096;-88
2023/03/18 05:11:06;;;;;;;7.30;4.27;;;4.50;99.90;;;;;;4956276;28;20023;-88
2023/03/18 05:13:32;;;;;;;9.37;4.77;;;4.40;99.90;;;;;;4955707;28;20059;-88
2023/03/18 05:16:00;;;;;;;10.20;5.23;;;4.40;99.90;;;;;;4954703;28;20035;-87
2023/03/18 05:18:25;;;;;;;8.50;4.40;;;4.30;99.90;;;;;;4955060;28;20042;-88
2023/03/18 05:20:51;;;;;;;12.20;4.47;;;4.30;99.90;;;;;;4956276;28;20474;-88
2023/03/18 05:23:17;;;;;;;9.53;4.60;;;4.20;99.90;;;;;;4953563;28;20316;-88
2023/03/18 05:25:42;;;;;;;9.57;4.83;;;4.20;99.90;;;;;;4955762;28;20073;-88
2023/03/18 05:28:08;;;;;;;11.27;4.63;;;4.10;99.90;;;;;;4954902;28;20019;-88
2023/03/18 05:30:35;;;;;;;12.33;4.40;;;4.10;99.90;;;;;;4955783;28;20058;-88
2023/03/18 05:33:02;;;;;;;9.63;5.07;;;4.10;99.90;;;;;;4954971;28;20062;-87
2023/03/18 05:35:27;;;;;;;6.20;3.93;;;4.10;99.90;;;;;;4956190;28;20047;-87
2023/03/18 05:37:53;;;;;;;10.43;4.53;;;4.10;99.90;;;;;;4954303;28;20705;-87
2023/03/18 05:40:19;;;;;;;6.60;3.90;;;4.10;99.90;;;;;;4956060;28;20474;-87
2023/03/18 05:42:44;;;;;;;7.53;4.43;;;4.10;99.90;;;;;;4955023;28;20035;-88
2023/03/18 05:45:10;;;;;;;5.30;3.43;;;4.10;99.90;;;;;;4955317;28;20974;-87
2023/03/18 05:47:36;;;;;;;9.20;4.27;;;4.10;99.90;;;;;;4955031;28;20035;-88
2023/03/18 05:50:02;;;;;;;5.80;3.70;;;4.20;99.90;;;;;;4955122;28;20023;-88
2023/03/18 05:52:28;;;;;;;6.90;3.90;;;4.20;99.90;;;;;;4956387;28;20114;-88
2023/03/18 05:54:54;;;;;;;8.47;3.87;;;4.20;99.90;;;;;;4956306;28;20473;-87
2023/03/18 05:57:20;;;;;;;6.43;3.47;;;4.20;99.90;;;;;;4956192;28;20500;-87
2023/03/18 05:59:45;;;;;;;6.87;3.57;;;4.20;99.90;;;;;;4957562;28;20030;-88
2023/03/18 06:02:11;;;;;;;7.83;4.37;;;4.30;99.90;;;;;;4957937;28;20813;-88
2023/03/18 06:04:38;;;;;;;7.57;4.00;;;4.30;99.90;;;;;;4956679;28;20043;-88
2023/03/18 06:07:05;;;;;;;5.50;3.80;;;4.40;99.90;;;;;;4956455;28;20035;-88
2023/03/18 06:09:32;;;;;;;10.77;3.90;;;4.40;99.90;;;;;;4956460;28;20040;-88
2023/03/18 06:11:58;;;;;;;9.20;3.87;;;4.50;99.90;;;;;;4956895;28;20110;-88
2023/03/18 06:14:28;;;;;;;10.73;4.10;;;4.50;99.90;;;;;;4957336;28;20085;-87
2023/03/18 06:16:55;;;;;;;7.37;3.53;;;4.60;99.90;;;;;;4956664;28;20119;-87
2023/03/18 06:19:21;;;;;;;10.37;4.07;;;4.60;99.90;;;;;;4954496;28;20035;-88
2023/03/18 06:21:47;;;;;;;8.53;3.80;;;4.70;99.90;;;;;;4955774;28;20403;-88
2023/03/18 06:24:14;;;;;;;6.00;3.63;;;4.80;99.90;;;;;;4954337;28;20035;-88
2023/03/18 06:26:40;;;;;;;8.77;3.53;;;4.80;99.90;;;;;;4953995;28;20035;-87
2023/03/18 06:29:06;;;;;;;7.00;3.43;;;4.90;99.90;;;;;;4954757;28;20513;-87
2023/03/18 06:31:33;;;;;;;12.10;3.90;;;5.00;99.90;;;;;;4953508;28;20200;-86
2023/03/18 06:33:59;;;;;;;6.83;3.10;;;5.00;99.90;;;;;;4953286;28;20042;-86
2023/03/18 06:36:25;;;;;;;6.27;3.40;;;5.10;99.90;;;;;;4953929;28;20475;-87
2023/03/18 06:38:51;;;;;;;9.10;3.50;;;5.20;99.90;;;;;;4953493;28;20034;-86
2023/03/18 06:41:17;;;;;;;6.20;3.60;;;5.20;99.90;;;;;;4954496;28;20045;-87
2023/03/18 06:43:43;;;;;;;7.10;3.50;;;5.30;99.90;;;;;;4953313;28;20076;-87
2023/03/18 06:46:09;;;;;;;6.17;3.07;;;5.40;99.90;;;;;;4952114;28;20093;-87
2023/03/18 06:48:39;;;;;;;5.87;3.17;;;5.50;99.90;;;;;;4953054;28;20027;-88
2023/03/18 06:51:05;;;;;;;8.27;3.33;;;5.50;99.90;;;;;;4953938;28;20039;-87
2023/03/18 06:53:31;;;;;;;5.83;3.40;;;5.60;99.90;;;;;;4952712;28;20076;-88
2023/03/18 06:55:56;;;;;;;5.87;3.20;;;5.70;99.90;;;;;;4953418;28;20494;-88
2023/03/18 06:58:23;;;;;;;8.77;3.70;;;5.70;99.90;;;;;;4953512;28;20049;-87
2023/03/18 07:00:48;;;;;;;9.57;3.70;;;5.90;99.90;;;;;;4955498;28;20069;-87
2023/03/18 07:03:14;;;;;;;7.97;3.77;;;6.00;99.90;;;;;;4954234;28;20121;-88
2023/03/18 07:05:41;;;;;;;7.40;3.90;;;6.10;99.90;;;;;;4954428;28;20138;-88
2023/03/18 07:08:08;;;;;;;7.93;3.73;;;6.20;99.90;;;;;;4954530;28;20062;-85
2023/03/18 07:10:34;;;;;;;8.77;3.57;;;6.30;99.90;;;;;;4955101;28;20027;-86
2023/03/18 07:13:00;;;;;;;7.77;3.20;;;6.50;99.90;;;;;;4953900;28;20470;-86
2023/03/18 07:15:26;;;;;;;6.50;3.47;;;6.60;99.90;;;;;;4955399;28;20032;-86
2023/03/18 07:17:52;;;;;;;10.37;3.40;;;6.80;99.90;;;;;;4954446;28;20034;-86
2023/03/18 07:20:18;;;;;;;5.67;3.53;;;6.90;99.90;;;;;;4955078;28;20039;-89
2023/03/18 07:22:45;;;;;;;7.73;3.47;;;7.00;99.90;;;;;;4957948;28;20027;-90
2023/03/18 07:25:14;;;;;;;8.83;3.13;;;7.10;99.90;;;;;;4957680;28;20051;-92
2023/03/18 07:27:41;;;;;;;6.63;3.40;;;7.20;99.90;;;;;;4957145;28;20037;-90
2023/03/18 07:30:08;;;;;;;8.30;4.00;;;7.40;99.90;;;;;;4956255;28;20046;-90
2023/03/18 07:32:35;;;;;;;10.63;2.83;;;7.50;99.90;;;;;;4955555;28;20402;-90
2023/03/18 07:35:03;;;;;;;7.07;3.20;;;7.70;99.90;;;;;;4958250;28;20070;-90
2023/03/18 07:37:29;;;;;;;6.23;3.20;;;7.90;99.90;;;;;;4957783;28;20041;-90
2023/03/18 07:39:55;;;;;;;7.03;3.40;;;8.00;99.90;;;;;;4957553;28;20109;-90
2023/03/18 07:42:20;;;;;;;6.17;3.13;;;8.10;99.90;;;;;;4955861;28;20125;-90
2023/03/18 07:44:46;;;;;;;6.60;3.20;;;8.20;99.90;;;;;;4957043;28;20038;-90
2023/03/18 07:47:13;;;;;;;10.67;3.43;;;8.30;99.90;;;;;;4956916;28;20106;-88
2023/03/18 07:49:40;;;;;;;11.53;3.83;;;8.40;99.90;;;;;;4953571;28;20023;-90
2023/03/18 07:52:07;;;;;;;7.97;3.73;;;8.50;99.90;;;;;;4955863;28;20117;-90
2023/03/18 07:54:32;;;;;;;13.07;3.80;;;8.60;99.90;;;;;;4955645;28;20130;-91
2023/03/18 07:56:58;;;;;;;8.03;3.30;;;8.70;99.90;;;;;;4955977;28;20060;-89
2023/03/18 07:59:24;;;;;;;6.17;3.50;;;8.80;99.90;;;;;;4956399;28;20382;-89
2023/03/18 08:01:49;;;;;;;8.03;3.30;;;9.00;99.90;;;;;;4956765;28;20113;-91
2023/03/18 08:04:15;;;;;;;7.53;4.00;;;9.10;99.90;;;;;;4955712;28;20708;-89
2023/03/18 08:06:41;;;;;;;6.13;3.17;;;9.20;99.90;;;;;;4956172;28;20038;-90
2023/03/18 08:09:07;;;;;;;8.87;4.07;;;9.30;99.90;;;;;;4955857;28;20068;-91
2023/03/18 08:11:33;;;;;;;5.73;3.57;;;9.50;99.90;;;;;;4956906;28;20024;-91
2023/03/18 08:13:59;;;;;;;15.00;3.93;;;9.60;99.90;;;;;;4956309;28;20046;-91
2023/03/18 08:16:25;;;;;;;9.47;4.33;;;9.80;99.90;;;;;;4956643;28;20023;-91
2023/03/18 08:18:51;;;;;;;12.30;4.20;;;9.90;99.90;;;;;;4955080;28;20035;-91
2023/03/18 08:21:17;;;;;;;5.75;3.03;;;10.10;99.90;;;;;;4955507;28;20031;-92
2023/03/18 08:23:43;;;;;;;26.23;17.77;;;10.20;99.90;;;;;;4955886;28;20054;-89
2023/03/18 08:26:09;;;;;;;11.13;5.10;;;10.40;99.90;;;;;;4956074;28;20101;-88
2023/03/18 08:28:35;;;;;;;9.38;4.97;;;10.50;99.90;;;;;;4956317;28;20043;-88
2023/03/18 08:31:02;;;;;;;8.10;4.70;;;10.60;99.90;;;;;;4955912;28;20142;-88
2023/03/18 08:33:28;;;;;;;30.73;20.17;;;10.70;99.90;;;;;;4954468;28;20030;-87
2023/03/18 08:35:57;;;;;;;16.88;8.73;;;10.90;99.90;;;;;;4956265;28;20038;-87
2023/03/18 08:38:23;;;;;;;9.50;3.58;;;11.00;99.90;;;;;;4955605;28;20039;-87
2023/03/18 08:40:50;;;;;;;5.38;2.50;;;11.10;99.90;;;;;;4954833;28;20118;-88
2023/03/18 08:43:15;;;;;;;4.97;2.50;;;11.20;99.90;;;;;;4955173;28;20043;-91
2023/03/18 08:45:41;;;;;;;9.23;3.25;;;11.30;99.90;;;;;;4955385;28;20169;-83
2023/03/18 08:48:07;;;;;;;6.82;2.10;;;11.50;99.90;;;;;;4955267;28;20090;-96
2023/03/18 08:50:34;;;;;;;4.00;2.30;;;11.60;99.90;;;;;;4956871;28;20574;-93
2023/03/18 08:53:01;;;;;;;8.05;2.22;;;11.70;99.90;;;;;;4969324;28;20570;-83
2023/03/18 08:55:30;;;;;;;5.40;2.20;;;11.80;99.90;;;;;;4950149;28;20126;-91
2023/03/18 08:57:56;;;;;;;5.35;2.38;;;11.90;99.90;;;;;;4951753;28;20035;-91
2023/03/18 09:00:23;;;;;;;6.90;2.47;;;12.00;99.90;;;;;;4953578;28;20039;-92
2023/03/18 09:02:48;;;;;;;5.50;2.50;;;12.10;99.90;;;;;;4952765;28;20070;-93
2023/03/18 09:05:14;;;;;;;5.20;2.60;;;12.20;99.90;;;;;;4958088;28;20106;-92
2023/03/18 09:07:39;;;;;;;5.55;2.78;;;12.20;99.90;;;;;;4957138;28;20027;-91
2023/03/18 09:10:05;;;;;;;7.72;2.75;;;12.30;99.90;;;;;;4954755;28;21437;-90
2023/03/18 09:12:31;;;;;;;5.60;2.10;;;12.40;99.90;;;;;;4954243;28;20026;-85
2023/03/18 09:14:57;;;;;;;3.45;2.05;;;12.50;99.90;;;;;;4955449;28;20113;-85
2023/03/18 09:17:23;;;;;;;5.95;2.63;;;12.60;99.90;;;;;;4955056;28;20972;-86
2023/03/18 09:19:49;;;;;;;3.60;2.13;;;12.70;99.90;;;;;;4954352;28;20035;-86
2023/03/18 09:22:15;;;;;;;6.22;2.40;;;12.90;99.90;;;;;;4953577;28;20125;-86
2023/03/18 09:24:41;;;;;;;5.03;1.98;;;13.00;99.90;;;;;;4953908;28;20055;-87
2023/03/18 09:27:06;;;;;;;4.63;2.40;;;13.10;99.90;;;;;;4956299;28;20027;-93
2023/03/18 09:29:32;;;;;;;5.78;2.20;;;13.20;99.90;;;;;;4953552;28;20066;-81
2023/03/18 09:31:57;;;;;;;9.63;2.70;;;13.30;99.90;;;;;;4954157;28;20047;-73
2023/03/18 09:34:23;;;;;;;4.60;2.35;;;13.40;99.90;;;;;;4954242;28;20173;-73
2023/03/18 09:36:50;;;;;;;4.97;2.22;;;13.40;99.90;;;;;;4954682;28;20025;-73
2023/03/18 09:39:20;;;;;;;7.07;3.10;;;13.50;99.90;;;;;;4953910;28;20053;-73
2023/03/18 09:42:02;;;;;;;5.35;2.53;;;13.70;99.90;;;;;;4955068;28;20423;-73
2023/03/18 09:44:32;;;;;;;5.95;2.33;;;13.80;99.90;;;;;;4953665;28;20487;-82
2023/03/18 09:47:14;;;;;;;6.95;2.45;;;14.00;99.90;;;;;;4954273;28;20368;-82
2023/03/18 09:50:04;;;;;;;5.30;2.50;;;14.10;99.90;;;;;;4953509;28;20042;-82
2023/03/18 09:52:45;;;;;;;5.97;2.90;;;14.30;99.90;;;;;;4954291;28;20059;-82
2023/03/18 09:55:22;;;;;;;9.25;2.33;;;14.60;99.90;;;;;;4954321;28;20039;-83
2023/03/18 09:57:50;;;;;;;7.65;2.15;;;14.70;99.90;;;;;;4953355;28;20039;-81
2023/03/18 10:00:28;;;;;;;7.60;1.98;;;14.80;99.90;;;;;;4954025;28;20398;-81
2023/03/18 10:03:32;;;;;;;3.58;1.70;;;14.90;99.90;;;;;;4953333;28;20062;-81
2023/03/18 10:06:11;;;;;;;2.50;1.45;;;15.00;99.90;;;;;;4954591;28;20035;-81
2023/03/18 10:08:56;;;;;;;5.65;1.90;;;15.30;99.90;;;;;;4954879;28;20438;-82
2023/03/18 10:11:40;;;;;;;3.40;1.63;;;15.40;99.90;;;;;;4954043;28;20386;-82
2023/03/18 10:14:32;;;;;;;4.33;1.97;;;15.60;99.90;;;;;;4953791;28;20058;-82
2023/03/18 10:17:37;;;;;;;3.95;1.80;;;15.60;99.90;;;;;;4954524;28;20273;-82
2023/03/18 10:20:38;;;;;;;6.67;1.80;;;15.70;99.90;;;;;;4954677;28;20030;-80
2023/03/18 10:23:19;;;;;;;4.88;1.95;;;15.70;99.90;;;;;;4949437;28;20290;-80
2023/03/18 10:25:53;;;;;;;4.68;1.92;;;15.80;99.90;;;;;;4953756;28;20050;-80
2023/03/18 10:28:31;;;;;;;5.15;1.95;;;16.00;99.90;;;;;;4952761;28;20026;-81
2023/03/18 10:31:02;;;;;;;4.85;2.53;;;16.10;99.90;;;;;;4952505;28;20378;-83
2023/03/18 10:33:39;;;;;;;9.50;2.42;;;16.30;99.90;;;;;;4953679;28;20035;-83
2023/03/18 10:36:16;;;;;;;9.18;2.13;;;16.40;99.90;;;;;;4952754;28;20030;-83
2023/03/18 10:38:44;;;;;;;7.10;2.35;;;16.50;99.90;;;;;;4952825;28;20054;-80
2023/03/18 10:41:17;;;;;;;6.90;2.20;;;16.70;99.90;;;;;;4953914;28;20035;-72
2023/03/18 10:43:45;;;;;;;6.95;2.10;;;16.80;99.20;;;;;;4953507;28;20529;-73
2023/03/18 10:46:14;;;;;;;5.13;2.00;;;16.90;99.90;;;;;;4954630;28;20165;-72
2023/03/18 10:48:50;;;;;;;4.97;1.83;;;17.00;99.90;;;;;;4953423;28;20045;-72
2023/03/18 10:51:25;;;;;;;5.22;2.95;;;17.10;99.90;;;;;;4953476;28;20093;-72
2023/03/18 10:54:12;;;;;;;5.90;2.30;;;17.30;99.70;;;;;;4952901;28;20154;-72
2023/03/18 10:56:37;;;;;;;5.97;1.90;;;17.60;98.50;;;;;;4956729;28;20085;-72
2023/03/18 10:59:15;;;;;;;4.40;2.08;;;17.70;98.20;;;;;;4957291;28;20505;-72
2023/03/18 11:01:44;;;;;;;6.22;2.05;;;17.50;98.30;;;;;;4957142;28;20078;-73
2023/03/18 11:04:13;;;;;;;8.77;2.45;;;17.50;97.80;;;;;;4957016;28;20034;-73
2023/03/18 11:06:54;;;;;;;4.30;1.95;;;17.60;98.00;;;;;;4956748;28;20442;-72
2023/03/18 11:09:22;;;;;;;8.75;2.47;;;17.60;97.70;;;;;;4956618;28;20034;-73
2023/03/18 11:11:54;;;;;;;4.70;2.40;;;17.70;99.00;;;;;;4957091;28;20077;-72
2023/03/18 11:14:25;;;;;;;5.57;2.22;;;17.90;97.30;;;;;;4956636;28;20039;-72
2023/03/18 11:16:59;;;;;;;5.20;2.25;;;18.20;96.60;;;;;;4957951;28;20054;-72
2023/03/18 11:19:45;;;;;;;6.72;2.45;;;18.30;95.00;;;;;;4955331;28;20169;-73
2023/03/18 11:22:25;;;;;;;6.28;2.70;;;18.50;96.80;;;;;;4956985;28;20093;-74
2023/03/18 11:25:11;;;;;;;6.95;2.30;;;18.60;94.60;;;;;;4956461;28;20788;-72
2023/03/18 11:27:39;;;;;;;4.35;2.22;;;18.40;95.60;;;;;;4955895;28;20034;-72
2023/03/18 11:30:16;;;;;;;4.50;2.53;;;18.50;94.80;;;;;;4954292;28;20069;-72
2023/03/18 11:32:51;;;;;;;5.15;2.40;;;18.40;94.80;;;;;;4955079;28;20043;-73
2023/03/18 11:35:22;;;;;;;6.07;2.40;;;18.40;93.90;;;;;;4955762;28;20058;-74
2023/03/18 11:37:49;;;;;;;5.25;2.45;;;18.40;93.20;;;;;;4954426;28;20034;-73
2023/03/18 11:40:14;;;;;;;4.85;2.50;;;18.20;94.10;;;;;;4956176;28;20030;-73
2023/03/18 11:42:41;;;;;;;5.28;2.30;;;18.50;93.30;;;;;;4955881;28;20463;-73
2023/03/18 11:45:28;;;;;;;7.22;2.72;;;18.60;94.00;;;;;;4956942;28;20395;-73
2023/03/18 11:47:54;;;;;;;6.30;2.42;;;18.90;93.70;;;;;;4955976;28;20057;-73
2023/03/18 11:50:24;;;;;;;5.88;2.90;;;19.00;92.00;;;;;;4956159;28;20054;-73
2023/03/18 11:53:39;;;;;;;5.85;2.28;;;19.10;93.40;;;;;;4955746;28;20039;-73
2023/03/18 11:56:17;;;;;;;4.50;2.40;;;19.20;91.50;;;;;;4914601;28;20508;-75
2023/03/18 11:59:11;;;;;;;7.75;2.30;;;19.10;90.80;;;;;;4955446;28;20062;-73
2023/03/18 12:01:40;;;;;;;4.25;2.22;;;18.90;92.50;;;;;;4956547;28;20117;-77
2023/03/18 12:04:24;;;;;;;6.95;2.55;;;19.00;91.10;;;;;;4956473;28;20161;-75
2023/03/18 12:07:09;;;;;;;7.47;2.63;;;19.30;91.40;;;;;;4956224;28;20047;-75
2023/03/18 12:09:50;;;;;;;5.90;2.50;;;19.40;88.50;;;;;;4953511;28;20790;-75
2023/03/18 12:12:45;;;;;;;7.75;3.08;;;19.60;89.90;;;;;;4955240;28;20090;-75
2023/03/18 12:15:35;;;;;;;8.18;3.50;;;20.00;89.30;;;;;;4955439;28;20538;-75
2023/03/18 12:18:21;;;;;;;9.95;3.42;;;20.10;86.70;;;;;;4948167;28;20538;-75
2023/03/18 12:20:49;;;;;;;6.70;3.20;;;19.90;88.10;;;;;;4955483;28;20035;-75
2023/03/18 12:23:36;;;;;;;8.32;3.22;;;20.10;88.80;;;;;;4954723;28;20486;-75
2023/03/18 12:26:16;;;;;;;8.23;3.20;;;20.50;85.90;;;;;;4954980;28;20041;-75
2023/03/18 12:29:10;;;;;;;7.10;3.17;;;20.50;86.10;;;;;;4954007;28;20035;-74
2023/03/18 12:31:59;;;;;;;6.40;3.20;;;20.60;86.90;;;;;;4952056;28;20772;-76
2023/03/18 12:34:56;;;;;;;6.10;3.38;;;20.70;83.50;;;;;;4953148;28;20031;-78
2023/03/18 12:37:46;;;;;;;6.03;3.08;;;20.50;84.20;;;;;;4956140;28;20343;-78
2023/03/18 12:40:20;;;;;;;6.78;3.00;;;20.30;83.90;;;;;;4956371;28;20046;-76
2023/03/18 12:42:57;;;;;;;12.45;3.20;;;20.50;84.50;;;;;;4954747;28;20026;-76
2023/03/18 12:45:29;;;;;;;8.80;3.22;;;20.30;84.50;;;;;;4955848;28;20042;-75
2023/03/18 12:48:24;;;;;;;9.48;3.03;;;20.00;84.60;;;;;;4952112;28;21589;-75
2023/03/18 12:51:02;;;;;;;8.25;3.38;;;20.00;86.80;;;;;;4954082;28;20039;-76
2023/03/18 12:53:35;;;;;;;7.25;3.28;;;19.90;83.30;;;;;;4953608;28;20133;-75
2023/03/18 12:56:19;;;;;;;6.57;2.83;;;19.90;84.50;;;;;;4956107;28;20533;-76
2023/03/18 12:58:51;;;;;;;7.93;3.80;;;19.90;84.30;;;;;;4954340;28;20031;-75
2023/03/18 13:01:23;;;;;;;8.88;3.28;;;19.80;83.10;;;;;;4954968;28;20030;-76
2023/03/18 13:04:00;;;;;;;9.02;3.33;;;19.70;83.20;;;;;;4954044;28;20031;-75